Time;durP1;ratioP1;P1;durP2;ratioP2;P2;SDS_P1;SDS_P2;PMS_P1;PMS_P2;Temp;Humidity;BMP_temperature;BMP_pressure;BME280_temperature;BME280_humidity;BME280_pressure;Samples;Min_cycle;Max_cycle;Signal;HPM_P1;HPM_P2
2022/01/21 00:00:01;;;;;;;11.50;4.53;;;;;;;3.25;66.22;100900.97;338982;29;2093;-65
2022/01/21 00:00:14;;;;;;;14.57;4.43;;;;;;;3.26;66.33;100906.97;339118;29;2225;-65
2022/01/21 00:00:26;;;;;;;15.25;4.68;;;;;;;3.28;66.60;100900.16;338030;29;1009;-65
2022/01/21 00:00:39;;;;;;;14.95;5.20;;;;;;;3.29;66.25;100909.63;338046;29;1683;-65
2022/01/21 00:00:51;;;;;;;13.60;5.18;;;;;;;3.30;66.15;100903.63;338332;29;1231;-65
2022/01/21 00:01:03;;;;;;;10.30;4.45;;;;;;;3.28;66.14;100897.59;339041;29;1810;-65
2022/01/21 00:01:17;;;;;;;9.40;4.00;;;;;;;3.28;65.63;100905.31;339615;29;1068;-65
2022/01/21 00:01:29;;;;;;;9.93;3.97;;;;;;;3.25;65.80;100906.13;339549;29;1109;-65
2022/01/21 00:01:42;;;;;;;11.18;3.95;;;;;;;3.24;66.04;100900.94;339585;29;1791;-65
2022/01/21 00:01:54;;;;;;;12.45;4.07;;;;;;;3.16;66.21;100901.69;338806;29;2026;-65
2022/01/21 00:02:08;;;;;;;12.63;4.35;;;;;;;3.13;66.54;100896.50;338299;29;1095;-65
2022/01/21 00:02:20;;;;;;;12.32;4.82;;;;;;;3.13;66.73;100901.63;338184;29;1246;-64
2022/01/21 00:02:32;;;;;;;12.88;4.68;;;;;;;3.14;66.82;100898.25;338246;29;1105;-64
2022/01/21 00:02:45;;;;;;;11.65;4.32;;;;;;;3.15;66.61;100902.53;338434;29;1088;-64
2022/01/21 00:02:58;;;;;;;11.02;3.88;;;;;;;3.11;66.76;100903.31;338788;29;1908;-64
2022/01/21 00:03:10;;;;;;;9.57;3.60;;;;;;;3.05;66.74;100903.19;339183;29;2223;-65
2022/01/21 00:03:22;;;;;;;10.90;3.63;;;;;;;3.05;66.56;100902.34;338220;29;2097;-65
2022/01/21 00:03:35;;;;;;;11.35;3.70;;;;;;;3.08;66.88;100903.28;339043;29;1385;-65
2022/01/21 00:03:47;;;;;;;10.90;3.80;;;;;;;3.10;66.78;100899.03;338737;29;1965;-65
2022/01/21 00:04:00;;;;;;;10.48;3.60;;;;;;;3.14;66.41;100903.38;339338;29;1360;-65
2022/01/21 00:04:12;;;;;;;10.77;3.42;;;;;;;3.16;66.57;100906.84;339657;29;1094;-65
2022/01/21 00:04:25;;;;;;;10.20;3.40;;;;;;;3.14;66.79;100908.50;338860;29;1046;-65
2022/01/21 00:04:37;;;;;;;9.70;3.33;;;;;;;3.13;66.86;100906.78;339241;29;1087;-65
2022/01/21 00:04:49;;;;;;;7.18;3.25;;;;;;;3.11;66.46;100905.88;339422;29;1021;-65
2022/01/21 00:05:01;;;;;;;7.80;3.35;;;;;;;3.09;66.77;100904.13;339411;29;1753;-64
2022/01/21 00:05:13;;;;;;;8.65;3.13;;;;;;;3.10;67.11;100906.72;340271;29;1694;-64
2022/01/21 00:05:25;;;;;;;8.27;3.20;;;;;;;3.12;66.96;100907.63;340899;29;1108;-65
2022/01/21 00:05:38;;;;;;;9.23;3.28;;;;;;;3.15;67.34;100904.22;340753;29;1082;-65
2022/01/21 00:05:50;;;;;;;11.48;3.80;;;;;;;3.15;66.91;100901.66;340799;29;1167;-64
2022/01/21 00:06:06;;;;;;;11.95;3.92;;;;;;;3.17;66.75;100912.84;340025;29;1679;-65
2022/01/21 00:06:18;;;;;;;9.80;3.70;;;;;;;3.20;66.24;100907.75;339622;29;1164;-64
2022/01/21 00:06:30;;;;;;;9.88;3.47;;;;;;;3.17;66.31;100908.56;339291;29;1195;-64
2022/01/21 00:06:42;;;;;;;9.07;3.10;;;;;;;3.17;66.65;100908.56;339639;29;1556;-65
2022/01/21 00:06:54;;;;;;;8.02;2.90;;;;;;;3.22;66.54;100912.91;339238;29;1241;-65
2022/01/21 00:07:06;;;;;;;8.13;3.00;;;;;;;3.24;66.46;100908.66;339639;29;1246;-65
2022/01/21 00:07:18;;;;;;;6.80;2.65;;;;;;;3.23;66.44;100906.94;339486;29;1010;-65
2022/01/21 00:07:31;;;;;;;7.63;2.70;;;;;;;3.24;66.24;100913.78;339397;29;1245;-64
2022/01/21 00:07:43;;;;;;;6.10;2.85;;;;;;;3.20;66.29;100916.34;339447;29;1021;-64
2022/01/21 00:07:55;;;;;;;7.03;3.20;;;;;;;3.22;66.29;100915.47;339298;29;1248;-65
2022/01/21 00:08:07;;;;;;;7.45;3.10;;;;;;;3.23;66.13;100914.66;339371;29;1058;-65
2022/01/21 00:08:19;;;;;;;7.82;3.08;;;;;;;3.22;66.30;100915.47;339264;29;1508;-64
2022/01/21 00:08:31;;;;;;;8.23;3.08;;;;;;;3.17;66.48;100910.25;339435;29;1903;-64
2022/01/21 00:08:45;;;;;;;9.73;3.10;;;;;;;3.21;66.91;100914.63;339449;29;1299;-64
2022/01/21 00:08:57;;;;;;;10.98;3.13;;;;;;;3.15;66.57;100912.81;339214;29;1524;-64
2022/01/21 00:09:10;;;;;;;12.25;3.28;;;;;;;3.16;66.99;100914.53;339458;29;1086;-64
2022/01/21 00:09:22;;;;;;;14.73;3.47;;;;;;;3.18;66.77;100914.59;339399;29;1058;-64
2022/01/21 00:09:34;;;;;;;13.77;3.17;;;;;;;3.18;66.44;100920.56;339942;29;948;-64
2022/01/21 00:09:47;;;;;;;10.88;2.92;;;;;;;3.18;66.47;100915.44;339324;29;1072;-65
2022/01/21 00:09:59;;;;;;;8.07;2.90;;;;;;;3.22;65.97;100915.47;339577;29;1125;-65
2022/01/21 00:10:11;;;;;;;7.53;3.00;;;;;;;3.23;66.29;100914.66;340726;29;1407;-64
2022/01/21 00:10:23;;;;;;;8.07;2.92;;;;;;;3.24;66.39;100924.06;339153;29;2078;-64
2022/01/21 00:10:35;;;;;;;10.48;2.97;;;;;;;3.24;66.47;100918.94;339197;29;1344;-64
2022/01/21 00:10:47;;;;;;;10.30;3.00;;;;;;;3.25;66.39;100913.84;339591;29;1055;-64
2022/01/21 00:10:59;;;;;;;9.43;3.13;;;;;;;3.25;66.14;100920.69;339262;29;1639;-64
2022/01/21 00:11:13;;;;;;;8.18;2.90;;;;;;;3.26;66.45;100918.16;339672;29;1193;-65
2022/01/21 00:11:30;;;;;;;7.88;2.92;;;;;;;3.25;66.15;100920.69;339386;29;1249;-64
2022/01/21 00:11:42;;;;;;;9.50;2.72;;;;;;;3.19;66.24;100922.28;338471;29;1877;-64
2022/01/21 00:11:54;;;;;;;10.40;2.97;;;;;;;3.15;66.70;100919.66;339427;29;2026;-65
2022/01/21 00:12:06;;;;;;;9.82;2.92;;;;;;;3.15;65.89;100914.50;339435;29;1771;-65
2022/01/21 00:12:18;;;;;;;9.27;2.90;;;;;;;3.17;66.34;100916.25;339547;29;1077;-65
2022/01/21 00:12:31;;;;;;;8.35;2.60;;;;;;;3.15;66.54;100915.38;339537;29;1047;-65
2022/01/21 00:12:46;;;;;;;10.13;2.83;;;;;;;3.17;66.42;100918.81;339405;29;1033;-64
2022/01/21 00:12:58;;;;;;;9.93;2.75;;;;;;;3.24;66.46;100918.94;339606;29;1578;-65
2022/01/21 00:13:44;;;;;;;9.32;3.00;;;;;;;3.25;67.01;100923.25;339376;29;1543;-64
2022/01/21 00:13:49;;;;;;;7.80;2.70;;;;;;;3.29;67.23;100923.31;336951;29;1162;-64
2022/01/21 00:14:01;;;;;;;7.97;2.80;;;;;;;3.33;66.53;100913.97;338764;29;2781;-65
2022/01/21 00:14:13;;;;;;;10.27;2.90;;;;;;;3.35;66.62;100910.56;339442;29;1324;-64
2022/01/21 00:14:25;;;;;;;9.85;2.78;;;;;;;3.33;66.17;100913.97;339371;29;1302;-65
2022/01/21 00:14:38;;;;;;;8.63;2.80;;;;;;;3.32;66.21;100919.94;339581;29;1254;-65
2022/01/21 00:14:50;;;;;;;7.95;2.78;;;;;;;3.31;66.17;100923.34;339415;29;1034;-64
2022/01/21 00:15:07;;;;;;;7.97;2.97;;;;;;;3.34;66.30;100915.69;340150;29;1346;-65
2022/01/21 00:15:20;;;;;;;9.65;3.20;;;;;;;3.33;66.13;100916.53;341016;29;1269;-64
2022/01/21 00:15:32;;;;;;;11.30;2.97;;;;;;;3.30;66.30;100913.91;341003;29;1313;-64
2022/01/21 00:15:44;;;;;;;12.10;2.90;;;;;;;3.32;65.99;100920.81;340947;29;1254;-64
2022/01/21 00:15:56;;;;;;;11.10;2.85;;;;;;;3.31;66.29;100920.78;340756;29;1370;-64
2022/01/21 00:16:16;;;;;;;9.98;3.00;;;;;;;3.29;65.99;100919.91;341001;29;1108;-65
2022/01/21 00:16:29;;;;;;;12.32;3.03;;;;;;;3.26;66.37;100924.97;338722;29;2121;-64
2022/01/21 00:16:42;;;;;;;13.40;3.08;;;;;;;3.27;66.13;100924.16;339785;29;839;-64
2022/01/21 00:16:54;;;;;;;10.27;2.95;;;;;;;3.27;66.45;100914.72;338763;29;1906;-64
2022/01/21 00:17:06;;;;;;;9.68;3.20;;;;;;;3.29;66.42;100915.63;339916;29;727;-65
2022/01/21 00:17:21;;;;;;;9.60;3.22;;;;;;;3.33;66.58;100921.69;339469;29;1030;-64
2022/01/21 00:17:33;;;;;;;10.20;3.38;;;;;;;3.36;66.06;100919.16;339466;29;1185;-64
2022/01/21 00:17:46;;;;;;;8.05;3.20;;;;;;;3.36;66.61;100921.72;338567;29;1833;-65
2022/01/21 00:17:58;;;;;;;6.78;3.20;;;;;;;3.36;66.25;100919.16;339615;29;1490;-64
2022/01/21 00:18:11;;;;;;;7.32;3.28;;;;;;;3.35;66.48;100918.28;340813;29;1058;-64
2022/01/21 00:18:23;;;;;;;9.48;3.30;;;;;;;3.36;66.29;100921.72;340895;29;1101;-64
2022/01/21 00:18:37;;;;;;;10.00;3.25;;;;;;;3.36;66.59;100919.16;339034;29;1979;-64
2022/01/21 00:19:05;;;;;;;8.20;3.30;;;;;;;3.38;66.61;100927.75;339199;29;2389;-65
2022/01/21 00:19:18;;;;;;;8.48;3.20;;;;;;;3.44;66.37;100921.84;339162;29;2343;-64
2022/01/21 00:19:37;;;;;;;9.30;3.05;;;;;;;3.43;66.26;100926.13;339405;29;1228;-65
2022/01/21 00:30:07;;;;;;;7.80;2.83;;;;;;;3.46;66.24;100921.06;339504;29;1025;-64
2022/01/21 00:30:20;;;;;;;11.52;2.92;;;;;;;3.24;66.35;100918.94;338270;29;1842;-65
2022/01/21 00:30:32;;;;;;;11.25;2.92;;;;;;;3.15;67.11;100920.50;338369;29;1117;-65
2022/01/21 00:30:47;;;;;;;9.93;3.05;;;;;;;3.16;66.83;100922.25;338388;29;1032;-65
2022/01/21 00:30:59;;;;;;;11.18;3.35;;;;;;;3.14;67.31;100923.94;339229;29;1177;-65
2022/01/21 00:31:11;;;;;;;11.43;3.50;;;;;;;3.13;66.94;100917.03;340971;29;1235;-64
2022/01/21 00:31:23;;;;;;;9.68;3.25;;;;;;;3.12;67.45;100920.47;340821;29;1439;-64
2022/01/21 00:31:35;;;;;;;7.68;3.05;;;;;;;3.13;67.16;100921.31;340737;29;1081;-64
2022/01/21 00:31:47;;;;;;;7.57;3.10;;;;;;;3.15;67.02;100920.50;340977;29;1067;-64
2022/01/21 00:31:59;;;;;;;9.30;2.88;;;;;;;3.02;66.83;100923.72;340622;29;1208;-64
2022/01/21 00:32:11;;;;;;;9.85;2.90;;;;;;;3.02;67.43;100917.69;340552;29;1052;-64
2022/01/21 00:32:24;;;;;;;10.43;3.03;;;;;;;3.05;67.51;100923.75;340422;29;1982;-64
2022/01/21 00:32:36;;;;;;;10.68;3.38;;;;;;;3.08;67.35;100928.97;338870;29;1689;-64
2022/01/21 00:32:48;;;;;;;9.45;3.13;;;;;;;3.08;67.25;100923.81;339054;29;2157;-65
2022/01/21 00:33:00;;;;;;;8.82;2.78;;;;;;;3.05;67.44;100922.88;339076;29;1735;-65
2022/01/21 00:33:13;;;;;;;8.30;2.63;;;;;;;3.05;67.12;100918.59;339526;29;1187;-64
2022/01/21 00:33:25;;;;;;;8.68;2.92;;;;;;;3.06;67.19;100919.47;338663;29;1887;-64
2022/01/21 00:33:37;;;;;;;9.20;3.10;;;;;;;3.09;67.25;100924.69;338001;29;1220;-64
2022/01/21 00:33:49;;;;;;;8.35;2.95;;;;;;;3.10;67.05;100922.16;337810;29;1056;-65
2022/01/21 00:34:01;;;;;;;7.93;2.85;;;;;;;3.09;67.07;100920.41;336890;29;1754;-64
2022/01/21 00:34:13;;;;;;;8.73;3.20;;;;;;;3.14;66.82;100928.19;337369;29;1526;-64
2022/01/21 00:34:25;;;;;;;8.93;3.40;;;;;;;3.14;66.99;100923.03;336647;29;1328;-64
2022/01/21 00:34:37;;;;;;;8.43;3.08;;;;;;;3.00;67.09;100925.38;336801;29;1351;-65
2022/01/21 00:34:49;;;;;;;8.32;2.72;;;;;;;2.85;67.30;100930.22;336858;29;1661;-64
2022/01/21 00:35:02;;;;;;;10.02;2.72;;;;;;;2.80;67.79;100928.44;337466;29;1755;-65
2022/01/21 00:35:16;;;;;;;9.65;2.90;;;;;;;2.75;67.93;100924.03;338262;29;1036;-65
2022/01/21 00:35:28;;;;;;;9.23;3.03;;;;;;;2.78;67.83;100930.09;336650;29;1797;-65
2022/01/21 00:35:40;;;;;;;8.63;3.03;;;;;;;2.79;67.93;100926.69;336696;29;1338;-65
2022/01/21 00:35:52;;;;;;;8.15;3.00;;;;;;;2.83;67.99;100924.19;336734;29;1564;-65
2022/01/21 00:36:05;;;;;;;8.23;3.20;;;;;;;2.85;67.95;100930.22;338511;29;1386;-64
2022/01/21 00:36:17;;;;;;;8.48;3.17;;;;;;;2.90;67.80;100924.34;339513;29;1156;-64
2022/01/21 00:36:29;;;;;;;9.65;3.15;;;;;;;2.92;67.72;100926.94;339209;29;2115;-65
2022/01/21 00:36:41;;;;;;;9.80;3.00;;;;;;;2.95;67.21;100925.28;338712;29;2115;-64
2022/01/21 00:36:53;;;;;;;9.13;2.90;;;;;;;2.91;67.61;100925.19;338107;29;1064;-64
2022/01/21 00:37:05;;;;;;;7.88;2.80;;;;;;;2.84;68.09;100923.34;338062;29;1996;-64
2022/01/21 00:37:17;;;;;;;8.82;2.85;;;;;;;2.79;68.11;100921.53;338291;29;1875;-64
2022/01/21 00:37:29;;;;;;;10.45;3.22;;;;;;;2.86;68.54;100921.66;338441;29;1558;-65
2022/01/21 00:37:42;;;;;;;9.65;3.25;;;;;;;2.86;68.50;100916.53;339500;29;1303;-64
2022/01/21 00:37:54;;;;;;;10.15;3.28;;;;;;;2.92;68.53;100921.81;339295;29;1170;-65
2022/01/21 00:38:06;;;;;;;9.32;3.10;;;;;;;2.89;68.09;100919.16;339518;29;1238;-65
2022/01/21 00:38:18;;;;;;;9.57;2.97;;;;;;;2.88;68.00;100917.41;339493;29;1113;-65
2022/01/21 00:38:31;;;;;;;8.45;2.90;;;;;;;2.95;68.32;100920.13;338000;29;1963;-64
2022/01/21 00:38:44;;;;;;;7.22;2.60;;;;;;;3.00;68.24;100920.25;338004;29;1720;-65
2022/01/21 00:38:57;;;;;;;7.57;2.80;;;;;;;2.95;68.31;100920.13;338575;29;1711;-64
2022/01/21 00:39:11;;;;;;;8.73;3.08;;;;;;;2.94;68.70;100920.13;338672;29;1961;-64
2022/01/21 00:39:26;;;;;;;9.00;3.30;;;;;;;2.92;68.28;100921.81;338360;29;1147;-65
2022/01/21 00:39:39;;;;;;;10.35;3.58;;;;;;;2.90;68.34;100924.34;338262;29;1021;-64
2022/01/21 00:39:55;;;;;;;10.32;3.42;;;;;;;2.93;68.34;100924.38;338421;29;1065;-64
2022/01/21 00:40:10;;;;;;;8.82;3.00;;;;;;;2.94;68.61;100922.69;338494;29;1044;-64
2022/01/21 00:40:24;;;;;;;9.32;3.15;;;;;;;2.96;68.45;100929.59;338179;29;2280;-65
2022/01/21 00:40:36;;;;;;;10.50;3.40;;;;;;;2.99;67.76;100928.78;339789;29;1921;-65
2022/01/21 00:40:49;;;;;;;11.10;3.28;;;;;;;3.01;68.19;100924.53;338682;29;1071;-64
2022/01/21 00:41:04;;;;;;;9.63;3.42;;;;;;;3.01;68.33;100921.97;338447;29;1642;-65
2022/01/21 00:41:21;;;;;;;9.85;3.83;;;;;;;3.04;67.76;100936.56;338512;29;1133;-64
2022/01/21 00:41:39;;;;;;;9.18;3.50;;;;;;;3.05;67.87;100928.88;338411;29;1094;-64
2022/01/21 00:42:53;;;;;;;8.68;3.15;;;;;;;3.07;67.76;100927.22;338252;29;1037;-64
2022/01/21 00:43:44;;;;;;;10.35;3.40;;;;;;;3.05;68.19;100936.59;338058;29;1296;-64
2022/01/21 00:43:52;;;;;;;8.00;3.08;;;;;;;3.05;67.75;100928.03;338721;29;1167;-65
2022/01/21 00:43:56;;;;;;;10.43;3.30;;;;;;;3.03;67.84;100929.69;338161;29;1547;-65
2022/01/21 00:44:08;;;;;;;11.70;3.15;;;;;;;3.03;68.11;100930.56;339020;29;1873;-64
2022/01/21 00:44:20;;;;;;;12.90;3.30;;;;;;;3.03;68.48;100935.69;339716;29;1071;-65
2022/01/21 00:44:32;;;;;;;13.27;3.17;;;;;;;3.03;68.30;100933.13;339830;29;1056;-64
2022/01/21 00:44:44;;;;;;;12.30;3.17;;;;;;;3.05;68.02;100928.03;339291;29;1146;-65
2022/01/21 00:44:59;;;;;;;10.77;3.17;;;;;;;3.08;67.70;100934.09;339923;29;1632;-65
2022/01/21 00:45:13;;;;;;;8.40;3.00;;;;;;;3.03;67.69;100925.41;341109;29;1225;-64
2022/01/21 00:45:26;;;;;;;7.80;2.90;;;;;;;3.04;68.09;100937.44;341026;29;1247;-64
2022/01/21 00:45:38;;;;;;;9.27;3.05;;;;;;;3.06;67.81;100928.06;339828;29;1355;-65
2022/01/21 00:45:50;;;;;;;9.98;2.92;;;;;;;3.04;67.56;100931.41;339808;29;1136;-65
2022/01/21 00:46:03;;;;;;;7.25;2.70;;;;;;;3.00;67.40;100935.66;340901;29;1650;-65
2022/01/21 00:46:15;;;;;;;8.13;2.53;;;;;;;3.01;68.04;100927.09;341097;28;1127;-65
2022/01/21 00:46:27;;;;;;;7.97;2.67;;;;;;;3.00;68.21;100935.66;341215;29;1306;-65
2022/01/21 00:46:39;;;;;;;8.52;2.90;;;;;;;3.02;67.95;100928.84;340694;29;2090;-64
2022/01/21 00:46:51;;;;;;;7.78;3.10;;;;;;;3.05;68.07;100931.44;339043;29;2197;-64
2022/01/21 00:47:04;;;;;;;8.30;2.97;;;;;;;3.04;67.50;100934.88;339473;29;1637;-64
2022/01/21 00:47:17;;;;;;;7.75;2.72;;;;;;;2.96;68.23;100928.72;339545;29;1792;-64
2022/01/21 00:47:29;;;;;;;8.63;2.95;;;;;;;3.00;68.20;100925.38;338395;29;1247;-64
2022/01/21 00:47:43;;;;;;;9.77;3.13;;;;;;;3.02;67.88;100928.84;338377;29;1143;-65
2022/01/21 00:47:55;;;;;;;10.90;3.22;;;;;;;3.06;68.12;100925.50;339841;29;2182;-64
2022/01/21 00:48:07;;;;;;;10.50;3.20;;;;;;;3.07;68.83;100932.34;338506;29;1295;-65
2022/01/21 00:48:19;;;;;;;9.88;3.15;;;;;;;3.07;69.14;100932.34;337801;29;1184;-65
2022/01/21 00:48:31;;;;;;;10.85;2.97;;;;;;;3.07;68.84;100932.34;337093;29;1193;-65
2022/01/21 00:48:43;;;;;;;11.55;3.03;;;;;;;3.09;69.35;100930.66;337033;29;1209;-65
2022/01/21 00:48:55;;;;;;;9.60;2.90;;;;;;;3.13;69.14;100927.31;338389;29;1295;-65
2022/01/21 00:49:07;;;;;;;8.63;3.03;;;;;;;3.13;69.20;100932.47;337801;29;1106;-65
2022/01/21 00:49:19;;;;;;;9.20;3.17;;;;;;;3.14;68.73;100929.06;338420;29;1300;-64
2022/01/21 00:49:31;;;;;;;9.57;3.42;;;;;;;3.13;68.88;100932.47;337149;29;1085;-64
2022/01/21 00:49:43;;;;;;;10.02;3.53;;;;;;;3.15;68.43;100928.22;337069;29;1153;-64
2022/01/21 00:49:56;;;;;;;9.35;3.55;;;;;;;3.15;68.88;100935.06;337196;29;1057;-64
2022/01/21 00:50:09;;;;;;;8.70;3.33;;;;;;;3.08;68.83;100933.22;336838;29;1189;-64
2022/01/21 00:50:21;;;;;;;7.20;3.30;;;;;;;3.05;68.86;100934.03;337152;29;1068;-65
2022/01/21 00:50:34;;;;;;;8.70;3.22;;;;;;;3.03;69.16;100934.84;338074;29;1121;-64
2022/01/21 00:50:47;;;;;;;9.10;3.38;;;;;;;2.95;69.79;100932.13;338487;29;1059;-64
2022/01/21 00:50:59;;;;;;;8.77;3.50;;;;;;;2.94;69.56;100932.97;338322;29;1037;-65
2022/01/21 00:51:11;;;;;;;9.35;3.65;;;;;;;2.95;69.35;100932.13;338454;29;1077;-65
2022/01/21 00:51:23;;;;;;;11.57;3.78;;;;;;;2.92;69.76;100937.22;337940;29;1985;-65
2022/01/21 00:51:36;;;;;;;13.35;4.00;;;;;;;2.89;69.84;100932.88;339021;29;1956;-65
2022/01/21 00:51:48;;;;;;;12.23;4.10;;;;;;;2.88;69.77;100925.13;339784;29;1106;-64
2022/01/21 00:52:01;;;;;;;8.77;4.00;;;;;;;2.94;69.45;100935.53;339741;29;1591;-64
2022/01/21 00:52:13;;;;;;;6.95;3.45;;;;;;;2.98;69.54;100932.19;338426;29;1418;-65
2022/01/21 00:52:25;;;;;;;9.20;3.25;;;;;;;2.97;69.08;100925.31;338595;29;1703;-64
2022/01/21 00:52:37;;;;;;;9.10;3.10;;;;;;;2.95;69.04;100932.97;339606;29;1698;-65
2022/01/21 00:52:49;;;;;;;9.68;3.15;;;;;;;2.93;68.59;100932.09;339851;29;1661;-64
2022/01/21 00:53:03;;;;;;;7.97;3.15;;;;;;;2.95;68.43;100937.25;339701;29;1620;-65
2022/01/21 00:53:15;;;;;;;9.20;3.40;;;;;;;2.97;68.39;100925.31;339879;29;1391;-65
2022/01/21 00:53:27;;;;;;;8.85;3.22;;;;;;;2.96;68.75;100929.59;339882;29;1195;-65
2022/01/21 00:53:39;;;;;;;7.95;3.00;;;;;;;2.99;68.24;100931.34;339637;29;1742;-65
2022/01/21 00:53:51;;;;;;;9.48;3.17;;;;;;;3.00;68.07;100931.38;339754;29;1040;-65
2022/01/21 00:54:03;;;;;;;10.27;3.50;;;;;;;3.03;67.75;100935.69;339569;29;1482;-65
2022/01/21 00:54:18;;;;;;;10.50;3.60;;;;;;;3.03;67.91;100929.69;339600;29;1020;-65
2022/01/21 00:54:30;;;;;;;9.23;3.85;;;;;;;3.03;68.18;100933.13;339734;29;864;-65
2022/01/21 00:54:42;;;;;;;11.15;3.92;;;;;;;3.04;67.45;100941.69;339502;29;1095;-65
2022/01/21 00:54:54;;;;;;;10.02;3.60;;;;;;;3.07;67.61;100929.78;339664;29;1040;-65
2022/01/21 00:55:08;;;;;;;9.82;3.45;;;;;;;3.07;67.99;100937.47;339018;29;2417;-64
2022/01/21 00:55:20;;;;;;;8.48;3.25;;;;;;;3.08;68.11;100939.22;339580;29;1361;-64
2022/01/21 00:55:32;;;;;;;7.45;3.05;;;;;;;3.06;68.03;100935.78;339744;29;1111;-65
2022/01/21 00:55:45;;;;;;;7.72;3.17;;;;;;;3.06;68.17;100934.88;339757;29;1244;-64
2022/01/21 00:55:57;;;;;;;8.45;3.30;;;;;;;3.09;68.22;100935.81;339717;29;1412;-65
2022/01/21 00:56:09;;;;;;;8.88;3.33;;;;;;;3.12;68.48;100940.13;339803;29;1073;-65
2022/01/21 00:56:21;;;;;;;8.40;3.13;;;;;;;3.14;68.22;100941.91;339895;29;1067;-65
2022/01/21 00:56:33;;;;;;;8.38;3.00;;;;;;;3.14;67.95;100939.34;339867;29;1020;-65
2022/01/21 00:56:45;;;;;;;8.57;2.90;;;;;;;3.16;68.49;100942.81;340019;29;1308;-65
2022/01/21 00:56:57;;;;;;;9.45;3.05;;;;;;;3.19;68.09;100942.84;339647;29;1799;-65
2022/01/21 00:57:09;;;;;;;8.60;2.90;;;;;;;3.22;67.92;100942.06;339536;29;1051;-65
2022/01/21 00:57:21;;;;;;;6.72;2.85;;;;;;;3.26;67.98;100942.97;338503;29;1061;-65
2022/01/21 00:57:33;;;;;;;7.72;2.95;;;;;;;3.26;67.94;100943.84;338408;29;1068;-65
2022/01/21 00:57:45;;;;;;;7.28;3.08;;;;;;;3.24;67.90;100944.63;338251;29;1887;-64
2022/01/21 00:57:57;;;;;;;9.18;2.90;;;;;;;3.25;68.08;100946.38;338613;29;1419;-64
2022/01/21 00:58:09;;;;;;;9.13;2.95;;;;;;;3.24;67.93;100939.50;339647;29;1020;-64
2022/01/21 00:58:22;;;;;;;11.15;3.10;;;;;;;3.29;67.94;100943.03;339699;29;1257;-64
2022/01/21 00:58:34;;;;;;;10.90;3.05;;;;;;;3.28;67.90;100943.84;339489;29;1814;-64
2022/01/21 00:58:46;;;;;;;8.93;3.08;;;;;;;3.29;67.82;100943.03;338971;29;2198;-65
2022/01/21 00:58:58;;;;;;;7.80;2.95;;;;;;;3.30;67.72;100939.59;338226;29;2389;-65
2022/01/21 00:59:10;;;;;;;9.07;3.00;;;;;;;3.31;67.60;100954.19;337957;29;2497;-65
2022/01/21 00:59:22;;;;;;;10.68;3.05;;;;;;;3.32;67.61;100943.06;338630;29;1016;-65
2022/01/21 00:59:34;;;;;;;10.68;3.22;;;;;;;3.29;67.42;100943.03;339750;29;1047;-65
2022/01/21 00:59:46;;;;;;;10.50;3.20;;;;;;;3.27;68.17;100944.69;338388;29;1053;-65
2022/01/21 00:59:58;;;;;;;10.40;3.15;;;;;;;3.29;67.95;100943.03;337797;29;2032;-65
2022/01/21 01:00:12;;;;;;;8.88;3.00;;;;;;;3.30;68.21;100948.19;337811;29;3015;-64
2022/01/21 01:00:25;;;;;;;8.63;3.13;;;;;;;3.33;68.08;100949.94;337761;29;2059;-65
2022/01/21 01:00:37;;;;;;;7.53;3.05;;;;;;;3.34;68.05;100946.53;337244;29;1819;-64
2022/01/21 01:00:49;;;;;;;8.02;3.13;;;;;;;3.32;67.86;100949.09;338339;29;1017;-64
2022/01/21 01:01:02;;;;;;;9.07;3.35;;;;;;;3.36;68.00;100955.13;338800;29;1417;-65
2022/01/21 01:01:14;;;;;;;9.77;3.35;;;;;;;3.39;67.47;100952.63;337837;29;1882;-64
2022/01/21 01:01:27;;;;;;;11.30;3.50;;;;;;;3.40;67.83;100949.19;337580;29;2215;-65
2022/01/21 01:01:39;;;;;;;11.13;3.35;;;;;;;3.40;67.39;100947.53;335830;29;2155;-65
2022/01/21 01:01:53;;;;;;;11.38;3.28;;;;;;;3.38;68.02;100953.44;337998;29;1418;-65
2022/01/21 01:02:05;;;;;;;8.90;2.92;;;;;;;3.39;67.95;100950.06;339504;29;1584;-65
2022/01/21 01:02:18;;;;;;;8.18;3.17;;;;;;;3.39;67.80;100950.06;339601;29;1344;-65
2022/01/21 01:02:31;;;;;;;8.55;3.25;;;;;;;3.34;68.04;100949.09;338269;29;1912;-64
2022/01/21 01:02:43;;;;;;;8.43;3.03;;;;;;;3.27;67.52;100944.69;337159;29;1060;-65
2022/01/21 01:02:55;;;;;;;8.25;2.92;;;;;;;3.29;67.51;100958.44;336877;29;1029;-64
2022/01/21 01:03:08;;;;;;;7.32;2.80;;;;;;;3.31;67.65;100956.78;337192;29;1317;-65
2022/01/21 01:03:20;;;;;;;8.20;2.95;;;;;;;3.33;68.00;100955.09;337098;29;1044;-64
2022/01/21 01:03:32;;;;;;;9.20;3.28;;;;;;;3.37;67.83;100956.88;337987;29;1447;-65
2022/01/21 01:03:44;;;;;;;10.45;3.40;;;;;;;3.37;67.89;100951.75;339464;29;2205;-65
2022/01/21 01:03:56;;;;;;;9.05;3.25;;;;;;;3.38;67.75;100950.88;339579;29;1575;-65
2022/01/21 01:04:08;;;;;;;8.45;3.30;;;;;;;3.39;67.85;100956.06;339493;29;1803;-65
2022/01/21 01:04:21;;;;;;;7.40;3.22;;;;;;;3.41;67.77;100956.09;339020;29;1281;-65
2022/01/21 01:04:33;;;;;;;7.38;2.90;;;;;;;3.42;67.65;100956.94;339341;29;1335;-64
2022/01/21 01:04:45;;;;;;;8.40;2.70;;;;;;;3.44;67.63;100962.97;339625;29;1102;-65
2022/01/21 01:04:57;;;;;;;9.45;2.97;;;;;;;3.46;67.59;100946.78;339682;29;1689;-65
2022/01/21 01:05:12;;;;;;;9.02;2.97;;;;;;;3.50;67.63;100953.69;339567;29;1513;-64
2022/01/21 01:05:24;;;;;;;8.60;3.00;;;;;;;3.51;67.69;100955.41;339618;29;2087;-65
2022/01/21 01:05:36;;;;;;;8.10;2.85;;;;;;;3.51;67.34;100960.56;339953;29;1147;-65
2022/01/21 01:05:52;;;;;;;6.50;2.85;;;;;;;3.53;67.38;100958.00;339980;29;1114;-65
2022/01/21 01:06:04;;;;;;;8.32;3.00;;;;;;;3.55;67.37;100953.75;339783;29;1428;-64
2022/01/21 01:06:16;;;;;;;9.30;3.30;;;;;;;3.51;67.07;100954.56;339243;29;2123;-64
2022/01/21 01:06:29;;;;;;;10.65;3.33;;;;;;;3.48;66.93;100959.63;339725;29;1059;-64
2022/01/21 01:06:41;;;;;;;8.55;3.00;;;;;;;3.43;67.21;100950.97;339722;29;1801;-65
2022/01/21 01:06:53;;;;;;;10.88;3.35;;;;;;;3.42;67.30;100951.81;339754;29;1325;-65
2022/01/21 01:07:05;;;;;;;10.73;3.30;;;;;;;3.41;67.16;100953.53;341112;29;1603;-65
2022/01/21 01:07:19;;;;;;;11.73;3.17;;;;;;;3.39;67.33;100948.34;341036;29;1179;-64
2022/01/21 01:07:31;;;;;;;9.95;2.70;;;;;;;3.39;67.19;100950.06;340894;29;1031;-65
2022/01/21 01:07:44;;;;;;;7.60;2.60;;;;;;;3.43;67.16;100953.56;341244;29;1313;-64
2022/01/21 01:07:58;;;;;;;7.82;2.80;;;;;;;3.45;67.20;100955.31;341101;29;1288;-65
2022/01/21 01:08:11;;;;;;;7.63;2.90;;;;;;;3.38;67.08;100956.03;341206;29;1027;-64
2022/01/21 01:08:23;;;;;;;9.82;2.90;;;;;;;3.43;67.26;100954.41;340084;29;1512;-65
2022/01/21 01:08:35;;;;;;;9.85;3.05;;;;;;;3.44;67.35;100955.28;339645;29;1167;-65
2022/01/21 01:08:49;;;;;;;8.98;3.10;;;;;;;3.39;67.00;100952.63;339764;29;1029;-64
2022/01/21 01:09:01;;;;;;;10.45;3.20;;;;;;;3.41;67.20;100950.94;339679;29;1557;-65
2022/01/21 01:09:13;;;;;;;10.40;3.10;;;;;;;3.40;67.39;100959.47;339858;29;1101;-64
2022/01/21 01:09:25;;;;;;;9.30;3.00;;;;;;;3.38;67.21;100956.03;339865;29;1117;-64
2022/01/21 01:09:37;;;;;;;9.98;2.90;;;;;;;3.40;67.01;100954.34;338651;29;1032;-65
2022/01/21 01:09:53;;;;;;;9.75;3.20;;;;;;;3.38;67.39;100950.88;338074;29;2238;-64
2022/01/21 01:10:09;;;;;;;9.27;3.28;;;;;;;3.37;67.61;100956.88;340997;29;1706;-64
2022/01/21 01:10:39;;;;;;;9.70;3.25;;;;;;;3.41;67.46;100953.53;340956;29;1061;-65
2022/01/21 01:12:16;;;;;;;7.72;2.70;;;;;;;3.47;67.02;100957.91;338643;29;1056;-65
2022/01/21 01:19:54;;;;;;;9.82;2.90;;;;;;;3.40;67.17;100957.81;338436;29;1021;-65
2022/01/21 01:20:08;;;;;;;8.98;2.53;;;;;;;3.50;66.94;100965.66;338566;29;1107;-65
2022/01/21 01:20:20;;;;;;;9.38;2.45;;;;;;;3.51;66.99;100959.69;336176;29;4727;-64
2022/01/21 01:20:32;;;;;;;8.73;2.53;;;;;;;3.53;66.77;100965.72;339491;29;4987;-65
2022/01/21 01:20:44;;;;;;;6.57;2.53;;;;;;;3.55;66.66;100967.47;339809;29;1207;-65
2022/01/21 01:20:56;;;;;;;6.75;2.78;;;;;;;3.54;66.50;100960.63;338737;29;4783;-64
2022/01/21 01:21:08;;;;;;;7.88;2.80;;;;;;;3.53;67.08;100969.16;339626;29;1054;-65
2022/01/21 01:21:21;;;;;;;8.13;2.60;;;;;;;3.52;67.12;100964.88;339613;29;1081;-65
2022/01/21 01:21:33;;;;;;;8.65;2.63;;;;;;;3.50;67.29;100961.41;339719;29;1293;-64
2022/01/21 01:21:48;;;;;;;9.05;2.67;;;;;;;3.46;67.25;100966.44;339582;29;1104;-65
2022/01/21 01:22:00;;;;;;;8.35;2.72;;;;;;;3.47;67.19;100963.91;339572;29;1784;-64
2022/01/21 01:22:15;;;;;;;7.75;2.80;;;;;;;3.50;67.35;100963.09;339708;29;1226;-64